sensor_id;sensor_type;location;lat;lon;timestamp;pressure;altitude;pressure_sealevel;temperature;humidity
59951;BME280;45812;53.540;9.774;2023-02-02T00:01:26;101116.19;;;3.85;100.00
59951;BME280;45812;53.540;9.774;2023-02-02T00:03:52;101133.34;;;3.90;100.00
59951;BME280;45812;53.540;9.774;2023-02-02T00:06:19;101124.78;;;3.76;100.00
59951;BME280;45812;53.540;9.774;2023-02-02T00:08:45;101132.56;;;3.77;100.00
59951;BME280;45812;53.540;9.774;2023-02-02T00:11:11;101121.81;;;3.80;100.00
59951;BME280;45812;53.540;9.774;2023-02-02T00:13:36;101129.59;;;3.82;100.00
59951;BME280;45812;53.540;9.774;2023-02-02T00:18:57;101155.69;;;3.85;100.00
59951;BME280;45812;53.540;9.774;2023-02-02T00:21:23;101155.81;;;3.83;100.00
59951;BME280;45812;53.540;9.774;2023-02-02T00:23:48;101149.34;;;3.87;100.00
59951;BME280;45812;53.540;9.774;2023-02-02T00:26:15;101167.69;;;3.89;100.00
59951;BME280;45812;53.540;9.774;2023-02-02T00:28:40;101151.78;;;3.90;100.00
59951;BME280;45812;53.540;9.774;2023-02-02T00:31:05;101154.34;;;4.03;100.00
59951;BME280;45812;53.540;9.774;2023-02-02T00:33:31;101147.41;;;4.02;100.00
59951;BME280;45812;53.540;9.774;2023-02-02T00:35:56;101152.69;;;4.02;100.00
59951;BME280;45812;53.540;9.774;2023-02-02T00:38:21;101153.69;;;4.12;100.00
59951;BME280;45812;53.540;9.774;2023-02-02T00:40:47;101158.75;;;4.15;100.00
59951;BME280;45812;53.540;9.774;2023-02-02T00:43:12;101166.22;;;4.09;100.00
59951;BME280;45812;53.540;9.774;2023-02-02T00:45:38;101175.00;;;4.09;100.00
59951;BME280;45812;53.540;9.774;2023-02-02T00:48:03;101170.63;;;3.97;100.00
59951;BME280;45812;53.540;9.774;2023-02-02T00:50:29;101181.38;;;3.94;100.00
59951;BME280;45812;53.540;9.774;2023-02-02T00:52:55;101174.69;;;3.77;100.00
59951;BME280;45812;53.540;9.774;2023-02-02T00:55:23;101175.22;;;3.70;100.00
59951;BME280;45812;53.540;9.774;2023-02-02T00:57:48;101184.50;;;3.62;100.00
59951;BME280;45812;53.540;9.774;2023-02-02T01:00:16;101190.50;;;3.64;100.00
59951;BME280;45812;53.540;9.774;2023-02-02T01:02:42;101196.38;;;3.68;100.00
59951;BME280;45812;53.540;9.774;2023-02-02T01:05:09;101192.50;;;3.74;100.00
59951;BME280;45812;53.540;9.774;2023-02-02T01:07:34;101199.72;;;3.83;100.00
59951;BME280;45812;53.540;9.774;2023-02-02T01:10:00;101207.13;;;3.78;100.00
59951;BME280;45812;53.540;9.774;2023-02-02T01:12:25;101204.50;;;3.78;100.00
59951;BME280;45812;53.540;9.774;2023-02-02T01:14:50;101211.78;;;3.74;100.00
59951;BME280;45812;53.540;9.774;2023-02-02T01:17:16;101206.06;;;3.68;100.00
59951;BME280;45812;53.540;9.774;2023-02-02T01:19:41;101205.56;;;3.62;100.00
59951;BME280;45812;53.540;9.774;2023-02-02T01:22:07;101218.72;;;3.62;100.00
59951;BME280;45812;53.540;9.774;2023-02-02T01:24:33;101227.38;;;3.52;100.00
59951;BME280;45812;53.540;9.774;2023-02-02T01:26:58;101219.78;;;3.47;100.00
59951;BME280;45812;53.540;9.774;2023-02-02T01:29:23;101224.22;;;3.59;100.00
59951;BME280;45812;53.540;9.774;2023-02-02T01:31:49;101233.78;;;3.60;100.00
59951;BME280;45812;53.540;9.774;2023-02-02T01:34:14;101257.56;;;3.72;100.00
59951;BME280;45812;53.540;9.774;2023-02-02T01:36:39;101230.47;;;3.82;100.00
59951;BME280;45812;53.540;9.774;2023-02-02T01:39:04;101219.94;;;3.82;100.00
59951;BME280;45812;53.540;9.774;2023-02-02T01:41:30;101240.91;;;3.84;100.00
59951;BME280;45812;53.540;9.774;2023-02-02T01:43:58;101236.06;;;3.90;100.00
59951;BME280;45812;53.540;9.774;2023-02-02T01:46:29;101257.13;;;3.90;100.00
59951;BME280;45812;53.540;9.774;2023-02-02T01:51:31;101261.63;;;4.01;100.00
59951;BME280;45812;53.540;9.774;2023-02-02T01:53:58;101253.84;;;4.00;100.00
59951;BME280;45812;53.540;9.774;2023-02-02T01:56:32;101259.06;;;4.12;100.00
59951;BME280;45812;53.540;9.774;2023-02-02T01:58:59;101267.72;;;4.14;100.00
59951;BME280;45812;53.540;9.774;2023-02-02T02:01:25;101263.63;;;4.10;100.00
59951;BME280;45812;53.540;9.774;2023-02-02T02:03:50;101268.97;;;4.09;100.00
59951;BME280;45812;53.540;9.774;2023-02-02T02:06:17;101272.38;;;4.11;100.00
59951;BME280;45812;53.540;9.774;2023-02-02T02:08:49;101274.66;;;4.15;100.00
59951;BME280;45812;53.540;9.774;2023-02-02T02:11:17;101273.75;;;4.28;100.00
59951;BME280;45812;53.540;9.774;2023-02-02T02:13:43;101271.56;;;4.21;100.00
59951;BME280;45812;53.540;9.774;2023-02-02T02:16:39;101280.25;;;4.11;100.00
59951;BME280;45812;53.540;9.774;2023-02-02T02:25:36;101300.69;;;4.07;100.00
59951;BME280;45812;53.540;9.774;2023-02-02T02:28:41;101300.50;;;4.10;100.00
59951;BME280;45812;53.540;9.774;2023-02-02T02:31:24;101332.00;;;4.12;100.00
59951;BME280;45812;53.540;9.774;2023-02-02T02:36:43;101324.59;;;4.30;100.00
59951;BME280;45812;53.540;9.774;2023-02-02T02:41:49;101315.41;;;4.22;100.00
59951;BME280;45812;53.540;9.774;2023-02-02T02:44:18;101316.09;;;4.13;100.00
59951;BME280;45812;53.540;9.774;2023-02-02T02:46:44;101313.22;;;4.16;100.00
59951;BME280;45812;53.540;9.774;2023-02-02T02:49:11;101325.34;;;4.06;100.00
59951;BME280;45812;53.540;9.774;2023-02-02T02:51:50;101338.34;;;4.09;100.00
59951;BME280;45812;53.540;9.774;2023-02-02T02:54:20;101325.69;;;4.02;100.00
59951;BME280;45812;53.540;9.774;2023-02-02T02:57:13;101341.59;;;4.00;100.00
59951;BME280;45812;53.540;9.774;2023-02-02T03:00:06;101345.06;;;4.01;100.00
59951;BME280;45812;53.540;9.774;2023-02-02T03:03:17;101342.25;;;3.91;100.00
59951;BME280;45812;53.540;9.774;2023-02-02T03:08:30;101345.69;;;4.04;100.00
59951;BME280;45812;53.540;9.774;2023-02-02T03:10:57;101338.00;;;4.01;100.00
59951;BME280;45812;53.540;9.774;2023-02-02T03:13:24;101354.53;;;4.03;100.00
59951;BME280;45812;53.540;9.774;2023-02-02T03:15:51;101345.81;;;4.03;100.00
59951;BME280;45812;53.540;9.774;2023-02-02T03:18:18;101356.84;;;4.08;100.00
59951;BME280;45812;53.540;9.774;2023-02-02T03:20:44;101364.34;;;4.14;100.00
59951;BME280;45812;53.540;9.774;2023-02-02T03:23:10;101366.66;;;4.18;100.00
59951;BME280;45812;53.540;9.774;2023-02-02T03:25:36;101356.56;;;4.12;100.00
59951;BME280;45812;53.540;9.774;2023-02-02T03:28:01;101363.41;;;4.02;100.00
59951;BME280;45812;53.540;9.774;2023-02-02T03:30:27;101362.38;;;3.92;100.00
59951;BME280;45812;53.540;9.774;2023-02-02T03:32:52;101381.31;;;3.84;100.00
59951;BME280;45812;53.540;9.774;2023-02-02T03:35:17;101387.41;;;3.85;100.00
59951;BME280;45812;53.540;9.774;2023-02-02T03:37:45;101379.00;;;3.80;100.00
59951;BME280;45812;53.540;9.774;2023-02-02T03:40:11;101383.00;;;3.98;100.00
59951;BME280;45812;53.540;9.774;2023-02-02T03:42:36;101384.69;;;3.86;100.00
59951;BME280;45812;53.540;9.774;2023-02-02T03:45:02;101394.81;;;3.80;100.00
59951;BME280;45812;53.540;9.774;2023-02-02T03:47:28;101401.13;;;3.77;100.00
59951;BME280;45812;53.540;9.774;2023-02-02T03:49:54;101398.91;;;3.84;100.00
59951;BME280;45812;53.540;9.774;2023-02-02T03:52:19;101402.06;;;3.76;100.00
59951;BME280;45812;53.540;9.774;2023-02-02T03:54:44;101403.53;;;3.68;100.00
59951;BME280;45812;53.540;9.774;2023-02-02T03:57:09;101409.53;;;3.70;100.00
59951;BME280;45812;53.540;9.774;2023-02-02T03:59:35;101404.13;;;3.46;100.00
59951;BME280;45812;53.540;9.774;2023-02-02T04:02:00;101405.94;;;3.58;100.00
59951;BME280;45812;53.540;9.774;2023-02-02T04:04:25;101407.75;;;3.83;100.00
59951;BME280;45812;53.540;9.774;2023-02-02T04:06:50;101415.03;;;3.79;100.00
59951;BME280;45812;53.540;9.774;2023-02-02T04:09:16;101438.31;;;3.73;100.00
59951;BME280;45812;53.540;9.774;2023-02-02T04:11:41;101422.38;;;3.61;100.00
59951;BME280;45812;53.540;9.774;2023-02-02T04:14:06;101427.22;;;3.68;100.00
59951;BME280;45812;53.540;9.774;2023-02-02T04:16:31;101434.41;;;3.78;100.00
59951;BME280;45812;53.540;9.774;2023-02-02T04:18:59;101431.16;;;3.75;100.00
59951;BME280;45812;53.540;9.774;2023-02-02T04:21:25;101436.47;;;3.60;100.00
59951;BME280;45812;53.540;9.774;2023-02-02T04:23:50;101447.44;;;3.54;100.00
59951;BME280;45812;53.540;9.774;2023-02-02T04:26:15;101435.63;;;3.60;100.00
59951;BME280;45812;53.540;9.774;2023-02-02T04:28:40;101442.81;;;3.71;100.00
59951;BME280;45812;53.540;9.774;2023-02-02T04:31:06;101454.50;;;3.67;100.00
59951;BME280;45812;53.540;9.774;2023-02-02T04:33:33;101455.22;;;3.69;100.00
59951;BME280;45812;53.540;9.774;2023-02-02T04:35:58;101465.56;;;3.72;100.00
59951;BME280;45812;53.540;9.774;2023-02-02T04:38:23;101466.50;;;3.71;100.00
59951;BME280;45812;53.540;9.774;2023-02-02T04:40:49;101478.19;;;3.67;100.00
59951;BME280;45812;53.540;9.774;2023-02-02T04:43:14;101472.72;;;3.70;100.00
59951;BME280;45812;53.540;9.774;2023-02-02T04:45:40;101464.91;;;3.68;100.00
59951;BME280;45812;53.540;9.774;2023-02-02T04:48:06;101469.06;;;3.72;100.00
59951;BME280;45812;53.540;9.774;2023-02-02T04:50:31;101470.13;;;3.82;100.00
59951;BME280;45812;53.540;9.774;2023-02-02T04:52:57;101465.50;;;3.99;100.00
59951;BME280;45812;53.540;9.774;2023-02-02T04:55:22;101465.72;;;4.21;100.00
59951;BME280;45812;53.540;9.774;2023-02-02T04:57:48;101467.94;;;4.14;100.00
59951;BME280;45812;53.540;9.774;2023-02-02T05:00:13;101488.13;;;3.88;100.00
59951;BME280;45812;53.540;9.774;2023-02-02T05:02:40;101479.38;;;3.88;100.00
59951;BME280;45812;53.540;9.774;2023-02-02T05:05:08;101471.47;;;3.88;100.00
59951;BME280;45812;53.540;9.774;2023-02-02T05:07:33;101467.50;;;4.08;100.00
59951;BME280;45812;53.540;9.774;2023-02-02T05:09:59;101479.50;;;3.86;100.00
59951;BME280;45812;53.540;9.774;2023-02-02T05:12:24;101475.91;;;3.87;100.00
59951;BME280;45812;53.540;9.774;2023-02-02T05:14:49;101485.50;;;3.76;100.00
59951;BME280;45812;53.540;9.774;2023-02-02T05:17:15;101480.59;;;4.09;100.00
59951;BME280;45812;53.540;9.774;2023-02-02T05:19:40;101482.78;;;4.03;100.00
59951;BME280;45812;53.540;9.774;2023-02-02T05:22:05;101479.63;;;3.98;100.00
59951;BME280;45812;53.540;9.774;2023-02-02T05:24:31;101483.53;;;4.17;100.00
59951;BME280;45812;53.540;9.774;2023-02-02T05:26:56;101497.44;;;4.19;100.00
59951;BME280;45812;53.540;9.774;2023-02-02T05:29:25;101499.56;;;4.14;100.00
59951;BME280;45812;53.540;9.774;2023-02-02T05:31:50;101504.16;;;3.98;100.00
59951;BME280;45812;53.540;9.774;2023-02-02T05:34:15;101493.09;;;4.06;100.00
59951;BME280;45812;53.540;9.774;2023-02-02T05:36:41;101511.03;;;4.13;100.00
59951;BME280;45812;53.540;9.774;2023-02-02T05:39:06;101510.63;;;4.19;100.00
59951;BME280;45812;53.540;9.774;2023-02-02T05:41:31;101520.84;;;4.37;100.00
59951;BME280;45812;53.540;9.774;2023-02-02T05:44:00;101516.00;;;4.18;100.00
59951;BME280;45812;53.540;9.774;2023-02-02T05:46:25;101517.78;;;4.17;100.00
59951;BME280;45812;53.540;9.774;2023-02-02T05:48:50;101517.56;;;4.08;100.00
59951;BME280;45812;53.540;9.774;2023-02-02T05:51:21;101523.38;;;4.13;100.00
59951;BME280;45812;53.540;9.774;2023-02-02T05:53:48;101538.16;;;4.28;100.00
59951;BME280;45812;53.540;9.774;2023-02-02T05:56:14;101531.91;;;4.16;100.00
59951;BME280;45812;53.540;9.774;2023-02-02T05:58:41;101535.06;;;4.21;100.00
59951;BME280;45812;53.540;9.774;2023-02-02T06:01:06;101539.50;;;4.21;100.00
59951;BME280;45812;53.540;9.774;2023-02-02T06:03:32;101537.69;;;4.09;100.00
59951;BME280;45812;53.540;9.774;2023-02-02T06:05:58;101545.69;;;4.07;100.00
59951;BME280;45812;53.540;9.774;2023-02-02T06:08:23;101546.91;;;4.29;100.00
59951;BME280;45812;53.540;9.774;2023-02-02T06:10:48;101546.59;;;4.33;100.00
59951;BME280;45812;53.540;9.774;2023-02-02T06:13:13;101562.47;;;4.19;100.00
59951;BME280;45812;53.540;9.774;2023-02-02T06:15:39;101562.25;;;4.09;100.00
59951;BME280;45812;53.540;9.774;2023-02-02T06:18:06;101568.69;;;4.18;100.00
59951;BME280;45812;53.540;9.774;2023-02-02T06:20:32;101565.69;;;3.97;100.00
59951;BME280;45812;53.540;9.774;2023-02-02T06:22:57;101567.72;;;4.06;100.00
59951;BME280;45812;53.540;9.774;2023-02-02T06:25:23;101565.84;;;4.21;100.00
59951;BME280;45812;53.540;9.774;2023-02-02T06:27:48;101565.19;;;4.05;100.00
59951;BME280;45812;53.540;9.774;2023-02-02T06:30:14;101565.91;;;4.07;100.00
59951;BME280;45812;53.540;9.774;2023-02-02T06:32:39;101573.53;;;4.11;100.00
59951;BME280;45812;53.540;9.774;2023-02-02T06:35:05;101582.09;;;4.28;100.00
59951;BME280;45812;53.540;9.774;2023-02-02T06:37:31;101579.66;;;4.24;100.00
59951;BME280;45812;53.540;9.774;2023-02-02T06:39:58;101574.59;;;4.21;100.00
59951;BME280;45812;53.540;9.774;2023-02-02T06:42:23;101590.69;;;4.04;100.00
59951;BME280;45812;53.540;9.774;2023-02-02T06:44:48;101593.09;;;4.07;100.00
59951;BME280;45812;53.540;9.774;2023-02-02T06:47:14;101603.47;;;4.23;100.00
59951;BME280;45812;53.540;9.774;2023-02-02T06:49:39;101601.41;;;4.28;100.00
59951;BME280;45812;53.540;9.774;2023-02-02T06:52:06;101600.81;;;4.50;100.00
59951;BME280;45812;53.540;9.774;2023-02-02T06:54:31;101616.47;;;4.39;100.00
59951;BME280;45812;53.540;9.774;2023-02-02T06:56:56;101611.06;;;4.15;100.00
59951;BME280;45812;53.540;9.774;2023-02-02T06:59:21;101621.00;;;4.37;100.00
59951;BME280;45812;53.540;9.774;2023-02-02T07:01:50;101618.25;;;4.25;100.00
59951;BME280;45812;53.540;9.774;2023-02-02T07:04:16;101628.78;;;4.25;100.00
59951;BME280;45812;53.540;9.774;2023-02-02T07:06:42;101626.94;;;4.01;100.00
59951;BME280;45812;53.540;9.774;2023-02-02T07:09:07;101636.03;;;4.09;100.00
59951;BME280;45812;53.540;9.774;2023-02-02T07:11:32;101646.91;;;4.17;100.00
59951;BME280;45812;53.540;9.774;2023-02-02T07:13:59;101638.88;;;4.19;100.00
59951;BME280;45812;53.540;9.774;2023-02-02T07:16:25;101643.38;;;4.31;100.00
59951;BME280;45812;53.540;9.774;2023-02-02T07:18:50;101656.13;;;4.37;100.00
59951;BME280;45812;53.540;9.774;2023-02-02T07:21:23;101651.19;;;4.45;100.00
59951;BME280;45812;53.540;9.774;2023-02-02T07:23:49;101655.13;;;4.25;100.00
59951;BME280;45812;53.540;9.774;2023-02-02T07:26:15;101667.50;;;4.38;100.00
59951;BME280;45812;53.540;9.774;2023-02-02T07:28:41;101660.97;;;4.43;100.00
59951;BME280;45812;53.540;9.774;2023-02-02T07:31:21;101666.34;;;4.42;100.00
59951;BME280;45812;53.540;9.774;2023-02-02T07:33:47;101670.09;;;4.52;100.00
59951;BME280;45812;53.540;9.774;2023-02-02T07:36:15;101690.38;;;4.37;100.00
59951;BME280;45812;53.540;9.774;2023-02-02T07:38:41;101682.47;;;4.37;100.00
59951;BME280;45812;53.540;9.774;2023-02-02T07:41:07;101688.91;;;4.46;100.00
59951;BME280;45812;53.540;9.774;2023-02-02T07:43:32;101676.91;;;4.42;100.00
59951;BME280;45812;53.540;9.774;2023-02-02T07:46:03;101676.03;;;4.29;100.00
59951;BME280;45812;53.540;9.774;2023-02-02T07:48:29;101684.78;;;4.02;100.00
59951;BME280;45812;53.540;9.774;2023-02-02T07:51:06;101691.16;;;4.12;100.00
59951;BME280;45812;53.540;9.774;2023-02-02T07:53:32;101691.44;;;4.35;100.00
59951;BME280;45812;53.540;9.774;2023-02-02T07:58:34;101693.91;;;4.23;100.00
59951;BME280;45812;53.540;9.774;2023-02-02T08:01:01;101700.88;;;4.24;100.00
59951;BME280;45812;53.540;9.774;2023-02-02T08:03:26;101701.81;;;4.23;100.00
59951;BME280;45812;53.540;9.774;2023-02-02T08:05:51;101709.50;;;4.14;100.00
59951;BME280;45812;53.540;9.774;2023-02-02T08:08:17;101711.88;;;4.31;100.00
59951;BME280;45812;53.540;9.774;2023-02-02T08:10:49;101720.28;;;4.23;100.00
59951;BME280;45812;53.540;9.774;2023-02-02T08:13:15;101720.88;;;4.41;100.00
59951;BME280;45812;53.540;9.774;2023-02-02T08:15:41;101724.50;;;4.53;100.00
59951;BME280;45812;53.540;9.774;2023-02-02T08:18:06;101734.03;;;4.41;100.00
59951;BME280;45812;53.540;9.774;2023-02-02T08:20:31;101736.72;;;4.27;100.00
59951;BME280;45812;53.540;9.774;2023-02-02T08:22:56;101741.34;;;4.23;100.00
59951;BME280;45812;53.540;9.774;2023-02-02T08:25:22;101750.75;;;4.28;100.00
59951;BME280;45812;53.540;9.774;2023-02-02T08:27:47;101745.25;;;4.18;100.00
59951;BME280;45812;53.540;9.774;2023-02-02T08:30:12;101750.28;;;4.35;100.00
59951;BME280;45812;53.540;9.774;2023-02-02T08:32:38;101755.13;;;4.41;100.00
59951;BME280;45812;53.540;9.774;2023-02-02T08:35:04;101759.53;;;4.28;100.00
59951;BME280;45812;53.540;9.774;2023-02-02T08:37:30;101763.69;;;4.45;100.00
59951;BME280;45812;53.540;9.774;2023-02-02T08:39:55;101769.13;;;4.56;100.00
59951;BME280;45812;53.540;9.774;2023-02-02T08:42:20;101773.50;;;4.43;100.00
59951;BME280;45812;53.540;9.774;2023-02-02T08:44:45;101768.59;;;4.51;100.00
59951;BME280;45812;53.540;9.774;2023-02-02T08:47:11;101771.44;;;4.61;100.00
59951;BME280;45812;53.540;9.774;2023-02-02T08:49:36;101775.81;;;4.74;100.00
59951;BME280;45812;53.540;9.774;2023-02-02T08:52:01;101776.91;;;4.84;100.00
59951;BME280;45812;53.540;9.774;2023-02-02T08:54:26;101790.25;;;5.08;100.00
59951;BME280;45812;53.540;9.774;2023-02-02T08:56:53;101790.69;;;5.53;100.00
59951;BME280;45812;53.540;9.774;2023-02-02T08:59:18;101791.56;;;5.41;100.00
59951;BME280;45812;53.540;9.774;2023-02-02T09:01:43;101789.09;;;5.89;100.00
59951;BME280;45812;53.540;9.774;2023-02-02T09:04:13;101791.78;;;6.25;100.00
59951;BME280;45812;53.540;9.774;2023-02-02T09:06:40;101790.56;;;6.66;100.00
59951;BME280;45812;53.540;9.774;2023-02-02T09:09:11;101801.66;;;6.95;100.00
59951;BME280;45812;53.540;9.774;2023-02-02T09:11:37;101800.22;;;7.02;100.00
59951;BME280;45812;53.540;9.774;2023-02-02T09:14:02;101805.38;;;6.68;100.00
59951;BME280;45812;53.540;9.774;2023-02-02T09:16:30;101802.75;;;6.32;100.00
59951;BME280;45812;53.540;9.774;2023-02-02T09:18:56;101815.91;;;6.21;100.00
59951;BME280;45812;53.540;9.774;2023-02-02T09:21:22;101820.09;;;5.99;100.00
59951;BME280;45812;53.540;9.774;2023-02-02T09:23:48;101827.13;;;6.48;100.00
59951;BME280;45812;53.540;9.774;2023-02-02T09:28:46;101830.84;;;7.86;99.47
59951;BME280;45812;53.540;9.774;2023-02-02T09:31:12;101830.19;;;7.38;99.88
59951;BME280;45812;53.540;9.774;2023-02-02T09:33:38;101834.31;;;6.59;100.00
59951;BME280;45812;53.540;9.774;2023-02-02T09:36:08;101842.13;;;6.84;100.00
59951;BME280;45812;53.540;9.774;2023-02-02T09:38:34;101837.31;;;7.48;100.00
59951;BME280;45812;53.540;9.774;2023-02-02T09:41:00;101835.78;;;8.13;100.00
59951;BME280;45812;53.540;9.774;2023-02-02T09:46:38;101854.16;;;8.70;88.87
59951;BME280;45812;53.540;9.774;2023-02-02T09:49:11;101853.88;;;8.41;91.49
59951;BME280;45812;53.540;9.774;2023-02-02T09:51:45;101846.53;;;8.88;91.33
59951;BME280;45812;53.540;9.774;2023-02-02T09:54:19;101853.91;;;9.17;87.46
59951;BME280;45812;53.540;9.774;2023-02-02T09:56:48;101858.78;;;9.32;87.31
59951;BME280;45812;53.540;9.774;2023-02-02T09:59:21;101858.56;;;9.45;83.20
59951;BME280;45812;53.540;9.774;2023-02-02T10:01:51;101867.84;;;9.71;85.72
59951;BME280;45812;53.540;9.774;2023-02-02T10:04:38;101869.31;;;10.06;83.41
59951;BME280;45812;53.540;9.774;2023-02-02T10:07:12;101873.50;;;10.09;83.56
59951;BME280;45812;53.540;9.774;2023-02-02T10:12:38;101878.53;;;9.19;85.79
59951;BME280;45812;53.540;9.774;2023-02-02T10:18:15;101891.59;;;10.15;79.29
59951;BME280;45812;53.540;9.774;2023-02-02T10:21:12;101892.75;;;10.52;75.66
59951;BME280;45812;53.540;9.774;2023-02-02T10:23:43;101895.09;;;11.05;74.89
59951;BME280;45812;53.540;9.774;2023-02-02T10:31:40;101910.50;;;12.81;66.04
59951;BME280;45812;53.540;9.774;2023-02-02T10:34:12;101916.84;;;12.80;64.73
59951;BME280;45812;53.540;9.774;2023-02-02T10:40:00;101926.25;;;13.29;62.00
59951;BME280;45812;53.540;9.774;2023-02-02T10:42:38;101937.19;;;12.90;62.00
59951;BME280;45812;53.540;9.774;2023-02-02T10:45:13;101935.34;;;12.91;62.89
59951;BME280;45812;53.540;9.774;2023-02-02T10:47:39;101942.47;;;13.00;59.26
59951;BME280;45812;53.540;9.774;2023-02-02T10:52:36;101946.16;;;11.49;69.08
59951;BME280;45812;53.540;9.774;2023-02-02T10:57:47;101947.16;;;13.16;63.13
59951;BME280;45812;53.540;9.774;2023-02-02T11:00:26;101954.19;;;14.14;62.15
59951;BME280;45812;53.540;9.774;2023-02-02T11:02:53;101954.66;;;14.35;54.62
59951;BME280;45812;53.540;9.774;2023-02-02T11:05:22;101956.34;;;14.36;55.25
59951;BME280;45812;53.540;9.774;2023-02-02T11:08:15;101952.84;;;13.66;54.43
59951;BME280;45812;53.540;9.774;2023-02-02T11:10:42;101943.44;;;13.26;56.60
59951;BME280;45812;53.540;9.774;2023-02-02T11:13:13;101957.56;;;13.72;56.55
59951;BME280;45812;53.540;9.774;2023-02-02T11:15:40;101953.94;;;13.10;56.36
59951;BME280;45812;53.540;9.774;2023-02-02T11:18:27;101947.44;;;13.13;58.51
59951;BME280;45812;53.540;9.774;2023-02-02T11:20:53;101947.47;;;12.58;59.15
59951;BME280;45812;53.540;9.774;2023-02-02T11:23:20;101949.84;;;12.24;62.65
59951;BME280;45812;53.540;9.774;2023-02-02T11:25:56;101954.09;;;12.17;63.62
59951;BME280;45812;53.540;9.774;2023-02-02T11:28:24;101941.09;;;12.96;59.75
59951;BME280;45812;53.540;9.774;2023-02-02T11:30:54;101951.84;;;13.67;58.32
59951;BME280;45812;53.540;9.774;2023-02-02T11:33:32;101947.94;;;15.24;58.84
59951;BME280;45812;53.540;9.774;2023-02-02T11:36:01;101942.91;;;17.13;50.08
59951;BME280;45812;53.540;9.774;2023-02-02T11:38:27;101955.13;;;18.51;46.34
59951;BME280;45812;53.540;9.774;2023-02-02T11:40:55;101959.66;;;18.06;45.62
59951;BME280;45812;53.540;9.774;2023-02-02T11:43:30;101963.38;;;18.94;45.67
59951;BME280;45812;53.540;9.774;2023-02-02T11:46:03;101956.91;;;17.77;43.20
59951;BME280;45812;53.540;9.774;2023-02-02T11:48:32;101957.81;;;16.92;44.46
59951;BME280;45812;53.540;9.774;2023-02-02T11:51:01;101960.13;;;16.48;46.99
59951;BME280;45812;53.540;9.774;2023-02-02T11:53:31;101972.56;;;14.61;48.94
59951;BME280;45812;53.540;9.774;2023-02-02T11:56:01;101967.13;;;14.87;52.84
59951;BME280;45812;53.540;9.774;2023-02-02T11:58:43;101967.47;;;16.07;47.98
59951;BME280;45812;53.540;9.774;2023-02-02T12:03:47;101973.56;;;16.48;44.51
59951;BME280;45812;53.540;9.774;2023-02-02T12:06:18;101967.28;;;17.11;45.87
59951;BME280;45812;53.540;9.774;2023-02-02T12:08:45;101971.66;;;17.12;44.32
59951;BME280;45812;53.540;9.774;2023-02-02T12:11:28;101970.50;;;15.63;45.24
59951;BME280;45812;53.540;9.774;2023-02-02T12:14:22;101984.63;;;13.69;52.61
59951;BME280;45812;53.540;9.774;2023-02-02T12:17:25;101980.00;;;11.97;56.38
59951;BME280;45812;53.540;9.774;2023-02-02T12:23:17;101982.50;;;11.21;64.58
59951;BME280;45812;53.540;9.774;2023-02-02T12:28:54;101998.78;;;10.47;65.66
59951;BME280;45812;53.540;9.774;2023-02-02T12:31:41;101996.06;;;10.17;68.04
59951;BME280;45812;53.540;9.774;2023-02-02T12:39:35;101989.84;;;9.86;71.12
59951;BME280;45812;53.540;9.774;2023-02-02T12:42:32;101995.34;;;9.41;74.31
59951;BME280;45812;53.540;9.774;2023-02-02T12:45:22;101984.09;;;9.05;74.38
59951;BME280;45812;53.540;9.774;2023-02-02T12:48:09;101994.25;;;8.67;75.54
59951;BME280;45812;53.540;9.774;2023-02-02T12:50:45;101984.72;;;9.41;73.53
59951;BME280;45812;53.540;9.774;2023-02-02T12:56:21;102001.41;;;10.68;66.93
59951;BME280;45812;53.540;9.774;2023-02-02T13:01:34;101989.38;;;11.23;64.24
59951;BME280;45812;53.540;9.774;2023-02-02T13:04:20;102000.75;;;11.35;65.15
59951;BME280;45812;53.540;9.774;2023-02-02T13:07:11;101992.56;;;12.24;62.62
59951;BME280;45812;53.540;9.774;2023-02-02T13:09:39;101999.69;;;13.07;55.33
59951;BME280;45812;53.540;9.774;2023-02-02T13:12:10;101997.53;;;13.56;54.60
59951;BME280;45812;53.540;9.774;2023-02-02T13:14:41;102004.47;;;14.28;52.53
59951;BME280;45812;53.540;9.774;2023-02-02T13:17:13;102004.41;;;15.64;49.03
59951;BME280;45812;53.540;9.774;2023-02-02T13:19:41;101998.50;;;17.20;47.01
59951;BME280;45812;53.540;9.774;2023-02-02T13:22:16;101997.31;;;18.59;42.50
59951;BME280;45812;53.540;9.774;2023-02-02T13:24:45;101999.44;;;19.08;39.28
59951;BME280;45812;53.540;9.774;2023-02-02T13:27:17;101993.84;;;19.09;39.08
59951;BME280;45812;53.540;9.774;2023-02-02T13:29:47;101999.28;;;19.30;38.97
59951;BME280;45812;53.540;9.774;2023-02-02T13:32:24;102004.00;;;20.35;40.67
59951;BME280;45812;53.540;9.774;2023-02-02T13:35:00;102007.47;;;20.50;35.02
59951;BME280;45812;53.540;9.774;2023-02-02T13:37:31;102001.13;;;19.87;37.75
59951;BME280;45812;53.540;9.774;2023-02-02T13:40:23;102004.06;;;19.50;36.83
59951;BME280;45812;53.540;9.774;2023-02-02T13:45:47;102016.91;;;19.26;37.48
59951;BME280;45812;53.540;9.774;2023-02-02T13:48:38;102018.28;;;18.86;36.98
59951;BME280;45812;53.540;9.774;2023-02-02T14:02:28;102019.56;;;15.39;42.29
59951;BME280;45812;53.540;9.774;2023-02-02T14:04:58;102028.56;;;15.14;43.01
59951;BME280;45812;53.540;9.774;2023-02-02T14:07:39;102022.97;;;14.91;43.12
59951;BME280;45812;53.540;9.774;2023-02-02T14:10:20;102019.19;;;14.76;43.92
59951;BME280;45812;53.540;9.774;2023-02-02T14:12:47;102022.47;;;14.62;45.48
59951;BME280;45812;53.540;9.774;2023-02-02T14:15:12;102027.38;;;14.22;45.43
59951;BME280;45812;53.540;9.774;2023-02-02T14:20:04;102031.50;;;12.73;49.69
59951;BME280;45812;53.540;9.774;2023-02-02T14:22:46;102020.09;;;12.24;51.86
59951;BME280;45812;53.540;9.774;2023-02-02T14:28:02;102018.19;;;11.97;56.90